Gaars Mill, Louisiana
Current Conditions -  °F | °C
As of 10:55 PM on Sunday 21 Dec 2014 (Local Time) from KRSN Reporting Station
Clear Clear  
Wind Chill: 44°   Ceiling: Unl
Heat Index: 47°   Visibility: 10mi
Dew Point: 47°   Wind: 6mph
Humidity: 100%   Direction: 180°S
Pressure: 29.93"   Gusts: NA
Location:  32.0727°N, 92.6697°W
Report Text: KRSN 220455Z AUTO 18005KT 10SM CLR 08/08 A2993 RMK AO2 T00810081
Loading
Personal Weather Stations






























Interactive Weather Map New forecast layout! Learn more

10-Day Weather Forecast

Advertisements
Track Severe Weather on mobile